sensor_id;sensor_type;location;lat;lon;timestamp;P1;durP1;ratioP1;P2;durP2;ratioP2
13230;SDS011;6681;53.254;10.398;2023-03-01T00:01:09;12.00;;;8.80;;
13230;SDS011;6681;53.254;10.398;2023-03-01T00:03:36;15.20;;;8.60;;
13230;SDS011;6681;53.254;10.398;2023-03-01T00:06:02;13.50;;;7.87;;
13230;SDS011;6681;53.254;10.398;2023-03-01T00:08:28;9.63;;;7.77;;
13230;SDS011;6681;53.254;10.398;2023-03-01T00:11:02;10.87;;;7.87;;
13230;SDS011;6681;53.254;10.398;2023-03-01T00:13:31;9.57;;;6.80;;
13230;SDS011;6681;53.254;10.398;2023-03-01T00:15:57;10.13;;;7.50;;
13230;SDS011;6681;53.254;10.398;2023-03-01T00:18:23;17.00;;;9.67;;
13230;SDS011;6681;53.254;10.398;2023-03-01T00:20:52;9.20;;;7.40;;
13230;SDS011;6681;53.254;10.398;2023-03-01T00:23:19;10.67;;;7.60;;
13230;SDS011;6681;53.254;10.398;2023-03-01T00:25:45;17.70;;;9.97;;
13230;SDS011;6681;53.254;10.398;2023-03-01T00:28:11;16.83;;;8.20;;
13230;SDS011;6681;53.254;10.398;2023-03-01T00:30:36;13.90;;;8.40;;
13230;SDS011;6681;53.254;10.398;2023-03-01T00:33:02;13.73;;;8.10;;
13230;SDS011;6681;53.254;10.398;2023-03-01T00:35:28;11.13;;;7.97;;
13230;SDS011;6681;53.254;10.398;2023-03-01T00:37:53;11.73;;;6.73;;
13230;SDS011;6681;53.254;10.398;2023-03-01T00:40:23;9.70;;;6.53;;
13230;SDS011;6681;53.254;10.398;2023-03-01T00:42:49;9.53;;;6.73;;
13230;SDS011;6681;53.254;10.398;2023-03-01T00:45:18;7.70;;;5.47;;
13230;SDS011;6681;53.254;10.398;2023-03-01T00:47:43;10.90;;;5.70;;
13230;SDS011;6681;53.254;10.398;2023-03-01T00:50:09;7.00;;;6.23;;
13230;SDS011;6681;53.254;10.398;2023-03-01T00:52:36;11.00;;;5.77;;
13230;SDS011;6681;53.254;10.398;2023-03-01T00:55:02;7.10;;;5.10;;
13230;SDS011;6681;53.254;10.398;2023-03-01T00:57:28;8.90;;;6.13;;
13230;SDS011;6681;53.254;10.398;2023-03-01T00:59:53;8.57;;;5.20;;
13230;SDS011;6681;53.254;10.398;2023-03-01T01:02:19;8.03;;;5.83;;
13230;SDS011;6681;53.254;10.398;2023-03-01T01:04:46;7.67;;;5.70;;
13230;SDS011;6681;53.254;10.398;2023-03-01T01:07:12;8.23;;;5.43;;
13230;SDS011;6681;53.254;10.398;2023-03-01T01:09:38;8.27;;;5.77;;
13230;SDS011;6681;53.254;10.398;2023-03-01T01:12:05;8.97;;;5.60;;
13230;SDS011;6681;53.254;10.398;2023-03-01T01:14:31;7.83;;;5.73;;
13230;SDS011;6681;53.254;10.398;2023-03-01T01:16:56;7.43;;;5.37;;
13230;SDS011;6681;53.254;10.398;2023-03-01T01:19:22;7.27;;;5.40;;
13230;SDS011;6681;53.254;10.398;2023-03-01T01:21:49;9.23;;;6.33;;
13230;SDS011;6681;53.254;10.398;2023-03-01T01:24:14;7.07;;;5.60;;
13230;SDS011;6681;53.254;10.398;2023-03-01T01:26:41;9.73;;;7.13;;
13230;SDS011;6681;53.254;10.398;2023-03-01T01:29:08;12.10;;;7.57;;
13230;SDS011;6681;53.254;10.398;2023-03-01T01:31:34;9.33;;;6.23;;
13230;SDS011;6681;53.254;10.398;2023-03-01T01:34:01;9.20;;;6.80;;
13230;SDS011;6681;53.254;10.398;2023-03-01T01:36:29;7.87;;;7.07;;
13230;SDS011;6681;53.254;10.398;2023-03-01T01:38:54;8.33;;;6.57;;
13230;SDS011;6681;53.254;10.398;2023-03-01T01:41:21;9.23;;;6.40;;
13230;SDS011;6681;53.254;10.398;2023-03-01T01:44:33;12.80;;;7.33;;
13230;SDS011;6681;53.254;10.398;2023-03-01T01:52:22;11.47;;;7.33;;
13230;SDS011;6681;53.254;10.398;2023-03-01T01:55:11;10.60;;;7.03;;
13230;SDS011;6681;53.254;10.398;2023-03-01T01:57:46;11.83;;;7.40;;
13230;SDS011;6681;53.254;10.398;2023-03-01T02:00:19;8.67;;;5.50;;
13230;SDS011;6681;53.254;10.398;2023-03-01T02:02:46;12.03;;;6.50;;
13230;SDS011;6681;53.254;10.398;2023-03-01T02:07:47;10.33;;;6.57;;
13230;SDS011;6681;53.254;10.398;2023-03-01T02:10:14;9.57;;;6.60;;
13230;SDS011;6681;53.254;10.398;2023-03-01T02:12:40;9.67;;;6.33;;
13230;SDS011;6681;53.254;10.398;2023-03-01T02:15:07;8.83;;;6.30;;
13230;SDS011;6681;53.254;10.398;2023-03-01T02:17:33;11.10;;;6.43;;
13230;SDS011;6681;53.254;10.398;2023-03-01T02:22:41;10.70;;;7.93;;
13230;SDS011;6681;53.254;10.398;2023-03-01T02:30:43;11.03;;;6.13;;
13230;SDS011;6681;53.254;10.398;2023-03-01T02:33:31;9.00;;;6.10;;
13230;SDS011;6681;53.254;10.398;2023-03-01T02:36:03;10.20;;;6.73;;
13230;SDS011;6681;53.254;10.398;2023-03-01T02:38:33;10.70;;;5.77;;
13230;SDS011;6681;53.254;10.398;2023-03-01T02:40:58;7.20;;;5.43;;
13230;SDS011;6681;53.254;10.398;2023-03-01T02:43:27;9.13;;;5.50;;
13230;SDS011;6681;53.254;10.398;2023-03-01T02:45:57;8.87;;;4.63;;
13230;SDS011;6681;53.254;10.398;2023-03-01T02:48:38;8.37;;;5.37;;
13230;SDS011;6681;53.254;10.398;2023-03-01T02:56:56;10.63;;;6.60;;
13230;SDS011;6681;53.254;10.398;2023-03-01T02:59:24;8.07;;;5.53;;
13230;SDS011;6681;53.254;10.398;2023-03-01T03:01:53;6.47;;;5.73;;
13230;SDS011;6681;53.254;10.398;2023-03-01T03:04:19;6.90;;;5.50;;
13230;SDS011;6681;53.254;10.398;2023-03-01T03:06:46;9.27;;;5.73;;
13230;SDS011;6681;53.254;10.398;2023-03-01T03:09:14;12.33;;;6.37;;
13230;SDS011;6681;53.254;10.398;2023-03-01T03:11:40;8.03;;;5.10;;
13230;SDS011;6681;53.254;10.398;2023-03-01T03:14:10;7.83;;;5.50;;
13230;SDS011;6681;53.254;10.398;2023-03-01T03:16:39;8.37;;;5.43;;
13230;SDS011;6681;53.254;10.398;2023-03-01T03:19:09;9.93;;;5.63;;
13230;SDS011;6681;53.254;10.398;2023-03-01T03:21:36;7.27;;;5.90;;
13230;SDS011;6681;53.254;10.398;2023-03-01T03:24:02;9.50;;;6.17;;
13230;SDS011;6681;53.254;10.398;2023-03-01T03:26:28;8.97;;;6.13;;
13230;SDS011;6681;53.254;10.398;2023-03-01T03:28:54;7.90;;;5.70;;
13230;SDS011;6681;53.254;10.398;2023-03-01T03:31:19;9.93;;;6.20;;
13230;SDS011;6681;53.254;10.398;2023-03-01T03:33:45;11.60;;;6.47;;
13230;SDS011;6681;53.254;10.398;2023-03-01T03:36:18;7.27;;;6.00;;
13230;SDS011;6681;53.254;10.398;2023-03-01T03:38:46;5.83;;;4.80;;
13230;SDS011;6681;53.254;10.398;2023-03-01T03:41:12;6.97;;;5.37;;
13230;SDS011;6681;53.254;10.398;2023-03-01T03:43:38;7.00;;;5.07;;
13230;SDS011;6681;53.254;10.398;2023-03-01T03:46:05;10.30;;;5.83;;
13230;SDS011;6681;53.254;10.398;2023-03-01T03:48:42;10.70;;;6.10;;
13230;SDS011;6681;53.254;10.398;2023-03-01T03:51:15;8.13;;;5.23;;
13230;SDS011;6681;53.254;10.398;2023-03-01T03:53:42;7.03;;;5.40;;
13230;SDS011;6681;53.254;10.398;2023-03-01T03:56:08;7.57;;;5.20;;
13230;SDS011;6681;53.254;10.398;2023-03-01T03:58:34;9.17;;;5.77;;
13230;SDS011;6681;53.254;10.398;2023-03-01T04:01:00;7.77;;;5.50;;
13230;SDS011;6681;53.254;10.398;2023-03-01T04:03:27;4.80;;;4.23;;
13230;SDS011;6681;53.254;10.398;2023-03-01T04:05:56;5.57;;;4.10;;
13230;SDS011;6681;53.254;10.398;2023-03-01T04:08:23;8.10;;;6.10;;
13230;SDS011;6681;53.254;10.398;2023-03-01T04:10:50;6.80;;;4.47;;
13230;SDS011;6681;53.254;10.398;2023-03-01T04:13:19;7.43;;;5.10;;
13230;SDS011;6681;53.254;10.398;2023-03-01T04:15:48;9.03;;;5.23;;
13230;SDS011;6681;53.254;10.398;2023-03-01T04:18:15;7.00;;;4.77;;
13230;SDS011;6681;53.254;10.398;2023-03-01T04:20:42;5.93;;;4.20;;
13230;SDS011;6681;53.254;10.398;2023-03-01T04:23:12;5.63;;;4.03;;
13230;SDS011;6681;53.254;10.398;2023-03-01T04:25:56;5.50;;;4.77;;
13230;SDS011;6681;53.254;10.398;2023-03-01T04:28:24;8.63;;;4.70;;
13230;SDS011;6681;53.254;10.398;2023-03-01T04:30:51;7.80;;;4.93;;
13230;SDS011;6681;53.254;10.398;2023-03-01T04:33:21;7.53;;;4.53;;
13230;SDS011;6681;53.254;10.398;2023-03-01T04:35:47;8.97;;;5.37;;
13230;SDS011;6681;53.254;10.398;2023-03-01T04:38:17;5.60;;;4.93;;
13230;SDS011;6681;53.254;10.398;2023-03-01T04:40:44;6.07;;;5.10;;
13230;SDS011;6681;53.254;10.398;2023-03-01T04:43:11;6.73;;;4.57;;
13230;SDS011;6681;53.254;10.398;2023-03-01T04:45:40;7.17;;;5.10;;
13230;SDS011;6681;53.254;10.398;2023-03-01T04:48:05;8.27;;;5.93;;
13230;SDS011;6681;53.254;10.398;2023-03-01T04:50:31;7.17;;;4.90;;
13230;SDS011;6681;53.254;10.398;2023-03-01T04:52:57;6.20;;;5.60;;
13230;SDS011;6681;53.254;10.398;2023-03-01T04:55:24;9.10;;;5.70;;
13230;SDS011;6681;53.254;10.398;2023-03-01T04:57:53;8.10;;;5.33;;
13230;SDS011;6681;53.254;10.398;2023-03-01T05:00:20;8.23;;;6.43;;
13230;SDS011;6681;53.254;10.398;2023-03-01T05:05:13;9.83;;;7.13;;
13230;SDS011;6681;53.254;10.398;2023-03-01T05:07:39;10.43;;;6.37;;
13230;SDS011;6681;53.254;10.398;2023-03-01T05:10:05;8.73;;;6.93;;
13230;SDS011;6681;53.254;10.398;2023-03-01T05:12:30;6.07;;;5.33;;
13230;SDS011;6681;53.254;10.398;2023-03-01T05:14:56;6.13;;;5.53;;
13230;SDS011;6681;53.254;10.398;2023-03-01T05:17:23;7.00;;;4.63;;
13230;SDS011;6681;53.254;10.398;2023-03-01T05:19:49;9.60;;;4.63;;
13230;SDS011;6681;53.254;10.398;2023-03-01T05:22:15;6.03;;;5.27;;
13230;SDS011;6681;53.254;10.398;2023-03-01T05:24:41;7.00;;;5.17;;
13230;SDS011;6681;53.254;10.398;2023-03-01T05:27:07;5.47;;;4.30;;
13230;SDS011;6681;53.254;10.398;2023-03-01T05:29:32;7.80;;;4.87;;
13230;SDS011;6681;53.254;10.398;2023-03-01T05:32:00;6.97;;;4.53;;
13230;SDS011;6681;53.254;10.398;2023-03-01T05:34:28;6.53;;;4.00;;
13230;SDS011;6681;53.254;10.398;2023-03-01T05:36:55;8.13;;;5.37;;
13230;SDS011;6681;53.254;10.398;2023-03-01T05:39:23;8.30;;;5.50;;
13230;SDS011;6681;53.254;10.398;2023-03-01T05:41:57;6.33;;;4.10;;
13230;SDS011;6681;53.254;10.398;2023-03-01T05:44:25;7.33;;;4.80;;
13230;SDS011;6681;53.254;10.398;2023-03-01T05:46:52;5.20;;;4.17;;
13230;SDS011;6681;53.254;10.398;2023-03-01T05:49:18;6.17;;;4.97;;
13230;SDS011;6681;53.254;10.398;2023-03-01T05:51:47;7.03;;;4.07;;
13230;SDS011;6681;53.254;10.398;2023-03-01T05:54:14;6.67;;;4.80;;
13230;SDS011;6681;53.254;10.398;2023-03-01T05:56:40;7.20;;;4.53;;
13230;SDS011;6681;53.254;10.398;2023-03-01T05:59:06;6.10;;;4.30;;
13230;SDS011;6681;53.254;10.398;2023-03-01T06:01:32;6.00;;;4.57;;
13230;SDS011;6681;53.254;10.398;2023-03-01T06:03:58;7.20;;;5.07;;
13230;SDS011;6681;53.254;10.398;2023-03-01T06:06:23;6.73;;;5.00;;
13230;SDS011;6681;53.254;10.398;2023-03-01T06:08:50;7.87;;;5.07;;
13230;SDS011;6681;53.254;10.398;2023-03-01T06:11:16;5.97;;;5.30;;
13230;SDS011;6681;53.254;10.398;2023-03-01T06:13:44;6.83;;;4.50;;
13230;SDS011;6681;53.254;10.398;2023-03-01T06:16:11;6.43;;;4.47;;
13230;SDS011;6681;53.254;10.398;2023-03-01T06:18:37;8.43;;;5.07;;
13230;SDS011;6681;53.254;10.398;2023-03-01T06:21:03;5.87;;;4.53;;
13230;SDS011;6681;53.254;10.398;2023-03-01T06:23:30;4.87;;;4.47;;
13230;SDS011;6681;53.254;10.398;2023-03-01T06:25:55;7.83;;;5.63;;
13230;SDS011;6681;53.254;10.398;2023-03-01T06:28:21;9.07;;;6.67;;
13230;SDS011;6681;53.254;10.398;2023-03-01T06:30:47;6.10;;;5.00;;
13230;SDS011;6681;53.254;10.398;2023-03-01T06:33:17;6.30;;;5.47;;
13230;SDS011;6681;53.254;10.398;2023-03-01T06:35:45;10.40;;;5.43;;
13230;SDS011;6681;53.254;10.398;2023-03-01T06:38:11;6.50;;;5.47;;
13230;SDS011;6681;53.254;10.398;2023-03-01T06:40:40;5.97;;;5.00;;
13230;SDS011;6681;53.254;10.398;2023-03-01T06:43:05;7.50;;;5.20;;
13230;SDS011;6681;53.254;10.398;2023-03-01T06:45:32;9.03;;;5.13;;
13230;SDS011;6681;53.254;10.398;2023-03-01T06:48:05;4.97;;;4.47;;
13230;SDS011;6681;53.254;10.398;2023-03-01T06:50:31;6.67;;;4.83;;
13230;SDS011;6681;53.254;10.398;2023-03-01T06:52:58;5.57;;;3.90;;
13230;SDS011;6681;53.254;10.398;2023-03-01T06:55:24;5.63;;;4.83;;
13230;SDS011;6681;53.254;10.398;2023-03-01T06:57:56;5.53;;;4.23;;
13230;SDS011;6681;53.254;10.398;2023-03-01T07:00:23;5.30;;;4.73;;
13230;SDS011;6681;53.254;10.398;2023-03-01T07:02:50;4.47;;;4.03;;
13230;SDS011;6681;53.254;10.398;2023-03-01T07:05:15;5.80;;;4.53;;
13230;SDS011;6681;53.254;10.398;2023-03-01T07:07:41;5.53;;;4.37;;
13230;SDS011;6681;53.254;10.398;2023-03-01T07:10:07;7.33;;;4.97;;
13230;SDS011;6681;53.254;10.398;2023-03-01T07:12:33;7.03;;;5.17;;
13230;SDS011;6681;53.254;10.398;2023-03-01T07:14:58;8.60;;;5.77;;
13230;SDS011;6681;53.254;10.398;2023-03-01T07:17:24;6.37;;;3.73;;
13230;SDS011;6681;53.254;10.398;2023-03-01T07:19:50;7.77;;;4.07;;
13230;SDS011;6681;53.254;10.398;2023-03-01T07:22:15;6.33;;;4.70;;
13230;SDS011;6681;53.254;10.398;2023-03-01T07:24:41;6.47;;;4.53;;
13230;SDS011;6681;53.254;10.398;2023-03-01T07:27:07;11.30;;;4.70;;
13230;SDS011;6681;53.254;10.398;2023-03-01T07:29:33;5.93;;;4.23;;
13230;SDS011;6681;53.254;10.398;2023-03-01T07:32:01;7.33;;;5.63;;
13230;SDS011;6681;53.254;10.398;2023-03-01T07:34:30;6.80;;;6.10;;
13230;SDS011;6681;53.254;10.398;2023-03-01T07:36:55;8.40;;;6.03;;
13230;SDS011;6681;53.254;10.398;2023-03-01T07:39:21;11.53;;;7.23;;
13230;SDS011;6681;53.254;10.398;2023-03-01T07:41:53;7.83;;;5.93;;
13230;SDS011;6681;53.254;10.398;2023-03-01T07:44:18;7.87;;;5.60;;
13230;SDS011;6681;53.254;10.398;2023-03-01T07:46:45;10.70;;;7.10;;
13230;SDS011;6681;53.254;10.398;2023-03-01T07:49:10;9.87;;;6.40;;
13230;SDS011;6681;53.254;10.398;2023-03-01T07:51:36;8.40;;;6.23;;
13230;SDS011;6681;53.254;10.398;2023-03-01T07:54:01;6.97;;;5.23;;
13230;SDS011;6681;53.254;10.398;2023-03-01T07:56:29;6.07;;;4.00;;
13230;SDS011;6681;53.254;10.398;2023-03-01T07:58:55;6.07;;;4.70;;
13230;SDS011;6681;53.254;10.398;2023-03-01T08:01:21;5.57;;;4.70;;
13230;SDS011;6681;53.254;10.398;2023-03-01T08:03:47;4.73;;;3.63;;
13230;SDS011;6681;53.254;10.398;2023-03-01T08:06:14;6.97;;;4.37;;
13230;SDS011;6681;53.254;10.398;2023-03-01T08:08:41;7.23;;;4.90;;
13230;SDS011;6681;53.254;10.398;2023-03-01T08:11:09;5.10;;;4.50;;
13230;SDS011;6681;53.254;10.398;2023-03-01T08:13:36;6.10;;;3.90;;
13230;SDS011;6681;53.254;10.398;2023-03-01T08:16:02;6.47;;;4.20;;
13230;SDS011;6681;53.254;10.398;2023-03-01T08:18:33;4.77;;;4.33;;
13230;SDS011;6681;53.254;10.398;2023-03-01T08:21:05;7.87;;;5.70;;
13230;SDS011;6681;53.254;10.398;2023-03-01T08:23:33;6.17;;;5.20;;
13230;SDS011;6681;53.254;10.398;2023-03-01T08:26:03;9.97;;;5.83;;
13230;SDS011;6681;53.254;10.398;2023-03-01T08:28:33;8.17;;;5.87;;
13230;SDS011;6681;53.254;10.398;2023-03-01T08:31:00;7.50;;;5.57;;
13230;SDS011;6681;53.254;10.398;2023-03-01T08:33:25;7.63;;;4.63;;
13230;SDS011;6681;53.254;10.398;2023-03-01T08:35:51;5.73;;;4.73;;
13230;SDS011;6681;53.254;10.398;2023-03-01T08:38:17;6.07;;;5.00;;
13230;SDS011;6681;53.254;10.398;2023-03-01T08:40:43;6.60;;;4.43;;
13230;SDS011;6681;53.254;10.398;2023-03-01T08:43:08;12.53;;;5.90;;
13230;SDS011;6681;53.254;10.398;2023-03-01T08:45:34;7.03;;;4.87;;
13230;SDS011;6681;53.254;10.398;2023-03-01T08:48:03;7.03;;;4.93;;
13230;SDS011;6681;53.254;10.398;2023-03-01T08:50:28;8.83;;;5.30;;
13230;SDS011;6681;53.254;10.398;2023-03-01T08:52:54;6.53;;;4.83;;
13230;SDS011;6681;53.254;10.398;2023-03-01T08:55:19;4.47;;;3.63;;
13230;SDS011;6681;53.254;10.398;2023-03-01T08:57:45;3.80;;;3.47;;
13230;SDS011;6681;53.254;10.398;2023-03-01T09:00:11;4.37;;;3.43;;
13230;SDS011;6681;53.254;10.398;2023-03-01T09:02:39;5.13;;;3.53;;
13230;SDS011;6681;53.254;10.398;2023-03-01T09:05:05;6.83;;;4.80;;
13230;SDS011;6681;53.254;10.398;2023-03-01T09:07:31;6.30;;;4.07;;
13230;SDS011;6681;53.254;10.398;2023-03-01T09:09:56;5.20;;;4.70;;
13230;SDS011;6681;53.254;10.398;2023-03-01T09:12:22;7.37;;;4.50;;
13230;SDS011;6681;53.254;10.398;2023-03-01T09:14:52;6.10;;;4.93;;
13230;SDS011;6681;53.254;10.398;2023-03-01T09:17:18;6.17;;;4.10;;
13230;SDS011;6681;53.254;10.398;2023-03-01T09:19:46;8.07;;;4.30;;
13230;SDS011;6681;53.254;10.398;2023-03-01T09:22:12;5.33;;;3.73;;
13230;SDS011;6681;53.254;10.398;2023-03-01T09:24:37;10.37;;;4.57;;
13230;SDS011;6681;53.254;10.398;2023-03-01T09:27:04;7.57;;;5.23;;
13230;SDS011;6681;53.254;10.398;2023-03-01T09:29:33;7.17;;;5.07;;
13230;SDS011;6681;53.254;10.398;2023-03-01T09:32:05;10.00;;;5.90;;
13230;SDS011;6681;53.254;10.398;2023-03-01T09:34:33;11.83;;;6.20;;
13230;SDS011;6681;53.254;10.398;2023-03-01T09:37:18;5.47;;;4.47;;
13230;SDS011;6681;53.254;10.398;2023-03-01T09:39:44;10.60;;;6.70;;
13230;SDS011;6681;53.254;10.398;2023-03-01T09:42:11;9.87;;;7.07;;
13230;SDS011;6681;53.254;10.398;2023-03-01T09:44:38;12.73;;;7.93;;
13230;SDS011;6681;53.254;10.398;2023-03-01T09:47:20;9.87;;;6.50;;
13230;SDS011;6681;53.254;10.398;2023-03-01T09:50:05;14.23;;;7.00;;
13230;SDS011;6681;53.254;10.398;2023-03-01T09:55:33;13.73;;;8.57;;
13230;SDS011;6681;53.254;10.398;2023-03-01T10:00:53;11.80;;;8.47;;
13230;SDS011;6681;53.254;10.398;2023-03-01T10:06:01;14.33;;;8.83;;
13230;SDS011;6681;53.254;10.398;2023-03-01T10:08:30;8.40;;;6.87;;
13230;SDS011;6681;53.254;10.398;2023-03-01T10:11:05;14.23;;;8.33;;
13230;SDS011;6681;53.254;10.398;2023-03-01T10:16:46;10.27;;;7.00;;
13230;SDS011;6681;53.254;10.398;2023-03-01T10:19:32;10.30;;;7.30;;
13230;SDS011;6681;53.254;10.398;2023-03-01T10:22:04;12.47;;;8.47;;
13230;SDS011;6681;53.254;10.398;2023-03-01T10:24:48;11.27;;;7.17;;
13230;SDS011;6681;53.254;10.398;2023-03-01T10:32:20;10.33;;;7.17;;
13230;SDS011;6681;53.254;10.398;2023-03-01T10:34:47;11.77;;;6.50;;
13230;SDS011;6681;53.254;10.398;2023-03-01T10:37:14;10.20;;;6.43;;
13230;SDS011;6681;53.254;10.398;2023-03-01T10:42:37;13.53;;;7.07;;
13230;SDS011;6681;53.254;10.398;2023-03-01T10:45:15;7.87;;;6.57;;
13230;SDS011;6681;53.254;10.398;2023-03-01T10:47:41;14.50;;;7.53;;
13230;SDS011;6681;53.254;10.398;2023-03-01T10:50:25;8.77;;;6.27;;
13230;SDS011;6681;53.254;10.398;2023-03-01T10:53:04;11.67;;;6.47;;
13230;SDS011;6681;53.254;10.398;2023-03-01T11:00:51;13.23;;;7.57;;
13230;SDS011;6681;53.254;10.398;2023-03-01T11:03:26;10.97;;;7.33;;
13230;SDS011;6681;53.254;10.398;2023-03-01T11:06:01;10.33;;;7.73;;
13230;SDS011;6681;53.254;10.398;2023-03-01T11:09:13;13.33;;;8.87;;
13230;SDS011;6681;53.254;10.398;2023-03-01T11:11:31;13.47;;;9.77;;
13230;SDS011;6681;53.254;10.398;2023-03-01T11:14:13;13.17;;;7.97;;
13230;SDS011;6681;53.254;10.398;2023-03-01T11:16:43;10.23;;;6.97;;
13230;SDS011;6681;53.254;10.398;2023-03-01T11:24:46;9.93;;;7.87;;
13230;SDS011;6681;53.254;10.398;2023-03-01T11:27:19;10.60;;;7.60;;
13230;SDS011;6681;53.254;10.398;2023-03-01T11:36:00;11.37;;;7.97;;
13230;SDS011;6681;53.254;10.398;2023-03-01T11:38:30;11.27;;;8.20;;
13230;SDS011;6681;53.254;10.398;2023-03-01T11:51:00;11.23;;;8.13;;
13230;SDS011;6681;53.254;10.398;2023-03-01T11:53:34;11.87;;;8.37;;
13230;SDS011;6681;53.254;10.398;2023-03-01T11:58:49;11.50;;;7.67;;
13230;SDS011;6681;53.254;10.398;2023-03-01T12:06:57;9.47;;;7.20;;
13230;SDS011;6681;53.254;10.398;2023-03-01T12:09:47;10.40;;;7.30;;
13230;SDS011;6681;53.254;10.398;2023-03-01T12:12:26;11.03;;;7.90;;
13230;SDS011;6681;53.254;10.398;2023-03-01T12:20:46;13.37;;;9.23;;
13230;SDS011;6681;53.254;10.398;2023-03-01T12:23:40;10.60;;;8.47;;
13230;SDS011;6681;53.254;10.398;2023-03-01T12:29:07;8.27;;;6.73;;
13230;SDS011;6681;53.254;10.398;2023-03-01T12:37:25;13.47;;;8.07;;
13230;SDS011;6681;53.254;10.398;2023-03-01T12:40:25;12.50;;;8.40;;
13230;SDS011;6681;53.254;10.398;2023-03-01T12:43:27;11.30;;;8.33;;
13230;SDS011;6681;53.254;10.398;2023-03-01T12:48:40;9.07;;;8.13;;
13230;SDS011;6681;53.254;10.398;2023-03-01T12:51:16;11.10;;;8.27;;
13230;SDS011;6681;53.254;10.398;2023-03-01T12:53:48;10.10;;;8.27;;
13230;SDS011;6681;53.254;10.398;2023-03-01T12:56:17;11.03;;;8.00;;
13230;SDS011;6681;53.254;10.398;2023-03-01T13:13:36;11.67;;;9.23;;
13230;SDS011;6681;53.254;10.398;2023-03-01T13:15:36;11.10;;;8.70;;
13230;SDS011;6681;53.254;10.398;2023-03-01T13:31:03;11.40;;;8.33;;
13230;SDS011;6681;53.254;10.398;2023-03-01T13:35:56;12.37;;;8.13;;
13230;SDS011;6681;53.254;10.398;2023-03-01T13:38:36;12.53;;;6.90;;
13230;SDS011;6681;53.254;10.398;2023-03-01T13:41:06;11.27;;;9.43;;
13230;SDS011;6681;53.254;10.398;2023-03-01T13:43:40;12.73;;;9.57;;
13230;SDS011;6681;53.254;10.398;2023-03-01T13:46:20;9.43;;;6.87;;
13230;SDS011;6681;53.254;10.398;2023-03-01T13:48:52;15.07;;;8.80;;
13230;SDS011;6681;53.254;10.398;2023-03-01T13:51:22;10.23;;;8.10;;
13230;SDS011;6681;53.254;10.398;2023-03-01T13:53:50;16.30;;;7.03;;
13230;SDS011;6681;53.254;10.398;2023-03-01T13:56:20;9.90;;;7.43;;
13230;SDS011;6681;53.254;10.398;2023-03-01T13:58:54;12.73;;;8.90;;
13230;SDS011;6681;53.254;10.398;2023-03-01T14:01:28;14.53;;;9.43;;
13230;SDS011;6681;53.254;10.398;2023-03-01T14:03:56;10.83;;;8.40;;
13230;SDS011;6681;53.254;10.398;2023-03-01T14:06:26;10.87;;;8.17;;
13230;SDS011;6681;53.254;10.398;2023-03-01T14:09:15;11.43;;;9.17;;
13230;SDS011;6681;53.254;10.398;2023-03-01T14:18:07;10.47;;;8.27;;
13230;SDS011;6681;53.254;10.398;2023-03-01T14:20:20;12.97;;;8.50;;
13230;SDS011;6681;53.254;10.398;2023-03-01T14:22:46;9.27;;;8.03;;
13230;SDS011;6681;53.254;10.398;2023-03-01T14:27:52;8.80;;;6.50;;
13230;SDS011;6681;53.254;10.398;2023-03-01T14:30:24;10.60;;;8.00;;
13230;SDS011;6681;53.254;10.398;2023-03-01T14:32:53;14.00;;;7.77;;
13230;SDS011;6681;53.254;10.398;2023-03-01T14:35:27;10.90;;;8.00;;
13230;SDS011;6681;53.254;10.398;2023-03-01T14:37:55;9.93;;;7.47;;
13230;SDS011;6681;53.254;10.398;2023-03-01T14:42:49;10.53;;;7.87;;
13230;SDS011;6681;53.254;10.398;2023-03-01T14:45:17;10.20;;;7.53;;
13230;SDS011;6681;53.254;10.398;2023-03-01T14:47:43;9.50;;;6.30;;
13230;SDS011;6681;53.254;10.398;2023-03-01T14:52:42;11.87;;;8.97;;
13230;SDS011;6681;53.254;10.398;2023-03-01T14:57:54;10.10;;;7.13;;
13230;SDS011;6681;53.254;10.398;2023-03-01T15:00:23;12.13;;;8.57;;
13230;SDS011;6681;53.254;10.398;2023-03-01T15:02:58;8.43;;;7.17;;
13230;SDS011;6681;53.254;10.398;2023-03-01T15:05:34;10.27;;;6.40;;
13230;SDS011;6681;53.254;10.398;2023-03-01T15:08:02;10.70;;;6.60;;
13230;SDS011;6681;53.254;10.398;2023-03-01T15:10:33;10.27;;;6.60;;
13230;SDS011;6681;53.254;10.398;2023-03-01T15:13:22;10.57;;;7.97;;
13230;SDS011;6681;53.254;10.398;2023-03-01T15:15:48;8.90;;;7.13;;
13230;SDS011;6681;53.254;10.398;2023-03-01T15:18:19;11.87;;;7.53;;
13230;SDS011;6681;53.254;10.398;2023-03-01T15:20:50;8.73;;;7.83;;
13230;SDS011;6681;53.254;10.398;2023-03-01T15:25:53;9.87;;;7.53;;
13230;SDS011;6681;53.254;10.398;2023-03-01T15:28:29;11.27;;;7.87;;
13230;SDS011;6681;53.254;10.398;2023-03-01T15:31:07;6.93;;;6.33;;
13230;SDS011;6681;53.254;10.398;2023-03-01T15:33:46;7.73;;;6.47;;
13230;SDS011;6681;53.254;10.398;2023-03-01T15:36:32;8.37;;;6.83;;
13230;SDS011;6681;53.254;10.398;2023-03-01T15:38:58;9.80;;;6.63;;
13230;SDS011;6681;53.254;10.398;2023-03-01T15:41:45;9.13;;;7.17;;
13230;SDS011;6681;53.254;10.398;2023-03-01T15:44:33;10.47;;;7.10;;
13230;SDS011;6681;53.254;10.398;2023-03-01T15:47:00;7.77;;;6.33;;
13230;SDS011;6681;53.254;10.398;2023-03-01T15:55:05;8.53;;;6.47;;
13230;SDS011;6681;53.254;10.398;2023-03-01T15:57:46;8.47;;;6.63;;
13230;SDS011;6681;53.254;10.398;2023-03-01T16:00:12;11.03;;;7.23;;
13230;SDS011;6681;53.254;10.398;2023-03-01T16:02:39;9.20;;;7.10;;
13230;SDS011;6681;53.254;10.398;2023-03-01T16:05:05;8.80;;;7.87;;
13230;SDS011;6681;53.254;10.398;2023-03-01T16:07:40;10.33;;;7.07;;
13230;SDS011;6681;53.254;10.398;2023-03-01T16:10:05;7.17;;;6.30;;
13230;SDS011;6681;53.254;10.398;2023-03-01T16:12:31;10.20;;;7.10;;
13230;SDS011;6681;53.254;10.398;2023-03-01T16:14:57;8.63;;;6.40;;
13230;SDS011;6681;53.254;10.398;2023-03-01T16:17:23;9.13;;;7.47;;
13230;SDS011;6681;53.254;10.398;2023-03-01T16:19:48;9.37;;;7.40;;
13230;SDS011;6681;53.254;10.398;2023-03-01T16:22:14;8.17;;;6.90;;
13230;SDS011;6681;53.254;10.398;2023-03-01T16:24:40;7.83;;;6.23;;
13230;SDS011;6681;53.254;10.398;2023-03-01T16:27:06;14.93;;;10.20;;
13230;SDS011;6681;53.254;10.398;2023-03-01T16:29:32;10.23;;;8.37;;
13230;SDS011;6681;53.254;10.398;2023-03-01T16:32:00;13.67;;;9.40;;
13230;SDS011;6681;53.254;10.398;2023-03-01T16:34:26;12.07;;;7.67;;
13230;SDS011;6681;53.254;10.398;2023-03-01T16:36:51;10.57;;;8.47;;
13230;SDS011;6681;53.254;10.398;2023-03-01T16:39:17;11.07;;;6.37;;
13230;SDS011;6681;53.254;10.398;2023-03-01T16:41:43;8.90;;;6.23;;
13230;SDS011;6681;53.254;10.398;2023-03-01T16:44:08;12.60;;;6.57;;
13230;SDS011;6681;53.254;10.398;2023-03-01T16:46:34;7.43;;;6.70;;
13230;SDS011;6681;53.254;10.398;2023-03-01T16:49:00;8.93;;;6.93;;
13230;SDS011;6681;53.254;10.398;2023-03-01T16:51:26;10.73;;;6.77;;
13230;SDS011;6681;53.254;10.398;2023-03-01T16:53:52;6.80;;;5.57;;
13230;SDS011;6681;53.254;10.398;2023-03-01T16:56:18;9.57;;;7.20;;
13230;SDS011;6681;53.254;10.398;2023-03-01T16:58:44;8.53;;;7.47;;
13230;SDS011;6681;53.254;10.398;2023-03-01T17:01:11;12.33;;;7.37;;
13230;SDS011;6681;53.254;10.398;2023-03-01T17:03:45;7.93;;;6.83;;
13230;SDS011;6681;53.254;10.398;2023-03-01T17:06:13;12.57;;;7.80;;
13230;SDS011;6681;53.254;10.398;2023-03-01T17:08:40;18.47;;;8.57;;
13230;SDS011;6681;53.254;10.398;2023-03-01T17:11:10;8.77;;;7.80;;
13230;SDS011;6681;53.254;10.398;2023-03-01T17:13:38;12.43;;;9.00;;
13230;SDS011;6681;53.254;10.398;2023-03-01T17:16:05;18.07;;;10.73;;
13230;SDS011;6681;53.254;10.398;2023-03-01T17:18:32;12.13;;;8.47;;
13230;SDS011;6681;53.254;10.398;2023-03-01T17:20:59;10.63;;;7.60;;
13230;SDS011;6681;53.254;10.398;2023-03-01T17:23:25;11.37;;;7.37;;
13230;SDS011;6681;53.254;10.398;2023-03-01T17:25:52;9.33;;;6.87;;